createdAt,value
2023-01-25T00:01:06.695Z,101066.38
2023-01-25T00:06:10.229Z,101068.25
2023-01-25T00:11:13.096Z,101075.16
2023-01-25T00:16:17.359Z,101060.72
2023-01-25T00:21:22.146Z,101054.59
2023-01-25T00:26:25.062Z,101056.75
2023-01-25T00:31:41.833Z,101060.09
2023-01-25T00:36:46.233Z,101055.53
2023-01-25T00:41:49.149Z,101057.69
2023-01-25T00:46:53.377Z,101051.81
2023-01-25T00:51:56.530Z,101064.09
2023-01-25T00:56:59.671Z,101050.22
2023-01-25T01:02:04.603Z,101047.66
2023-01-25T01:07:07.623Z,101042.06
2023-01-25T01:12:10.607Z,101044.34
2023-01-25T01:17:14.868Z,101048.72
2023-01-25T01:22:17.822Z,101036.91
2023-01-25T01:27:20.721Z,101034.63
2023-01-25T01:32:25.222Z,101025.31
2023-01-25T01:37:28.204Z,101011.66
2023-01-25T01:42:31.061Z,100999.25
2023-01-25T01:47:45.877Z,100994.03
2023-01-25T01:52:51.369Z,100993.03
2023-01-25T01:57:59.004Z,100993.66
2023-01-25T02:03:03.577Z,100978.31
2023-01-25T02:08:08.999Z,100974.38
2023-01-25T02:13:12.175Z,100964.88
2023-01-25T02:18:17.255Z,100969.94
2023-01-25T02:23:26.925Z,100965.16
2023-01-25T02:28:36.124Z,100959.03
2023-01-25T02:33:40.730Z,100950.47
2023-01-25T02:38:47.947Z,100953.91
2023-01-25T02:43:53.226Z,100938.38
2023-01-25T02:48:56.825Z,100935.47
2023-01-25T02:54:00.754Z,100934.00
2023-01-25T02:59:05.904Z,100917.59
2023-01-25T03:04:10.869Z,100911.84
2023-01-25T03:09:14.053Z,100911.84
2023-01-25T03:14:23.008Z,100915.75
2023-01-25T03:19:26.285Z,100926.06
2023-01-25T03:24:29.570Z,100916.41
2023-01-25T03:29:34.521Z,100911.25
2023-01-25T03:34:39.609Z,100915.72
2023-01-25T03:39:43.156Z,100909.81
2023-01-25T03:44:47.660Z,100905.13
2023-01-25T03:49:50.502Z,100905.66
2023-01-25T03:54:55.144Z,100901.00
2023-01-25T04:00:00.772Z,100892.84
2023-01-25T04:05:03.892Z,100903.09
2023-01-25T04:10:08.860Z,100896.63
2023-01-25T04:15:16.445Z,100898.91
2023-01-25T04:20:19.740Z,100888.97
2023-01-25T04:25:23.156Z,100879.50
2023-01-25T04:30:31.102Z,100884.44
2023-01-25T04:35:34.245Z,100891.59
2023-01-25T04:40:38.863Z,100884.56
2023-01-25T04:45:43.213Z,100892.41
2023-01-25T04:50:53.228Z,100893.75
2023-01-25T04:55:58.309Z,100891.91
2023-01-25T05:01:03.807Z,100885.13
2023-01-25T05:06:08.256Z,100889.41
2023-01-25T05:11:11.648Z,100886.59
2023-01-25T05:16:30.630Z,100881.38
2023-01-25T05:21:52.381Z,100881.50
2023-01-25T05:27:01.624Z,100875.66
2023-01-25T05:32:17.093Z,100871.56
2023-01-25T05:37:21.994Z,100864.97
2023-01-25T05:42:32.523Z,100864.25
2023-01-25T05:47:37.600Z,100866.16
2023-01-25T05:52:41.027Z,100847.28
2023-01-25T05:57:45.285Z,100848.31
2023-01-25T06:02:49.759Z,100846.28
2023-01-25T06:07:58.709Z,100849.56
2023-01-25T06:13:06.217Z,100845.25
2023-01-25T06:18:10.625Z,100845.59
2023-01-25T06:23:33.524Z,100843.63
2023-01-25T06:28:38.123Z,100846.78
2023-01-25T06:33:43.736Z,100848.31
2023-01-25T06:38:49.604Z,100842.38
2023-01-25T06:43:52.909Z,100845.59
2023-01-25T06:48:57.312Z,100838.88
2023-01-25T06:54:03.579Z,100831.78
2023-01-25T06:59:06.571Z,100831.53
2023-01-25T07:04:13.013Z,100836.19
2023-01-25T07:09:16.350Z,100827.47
2023-01-25T07:14:19.244Z,100816.84
2023-01-25T07:19:23.695Z,100813.88
2023-01-25T07:24:29.128Z,100802.66
2023-01-25T07:29:32.084Z,100797.47
2023-01-25T07:34:36.355Z,100806.50
2023-01-25T07:39:40.802Z,100795.63
2023-01-25T07:44:43.765Z,100796.78
2023-01-25T07:49:50.363Z,100793.16
2023-01-25T07:54:53.253Z,100791.75
2023-01-25T07:59:56.391Z,100778.88
2023-01-25T08:05:00.773Z,100772.34
2023-01-25T08:10:03.659Z,100768.38
2023-01-25T08:15:08.502Z,100765.94
2023-01-25T08:20:13.989Z,100761.38
2023-01-25T08:25:16.921Z,100759.47
2023-01-25T08:30:20.185Z,100751.00
2023-01-25T08:35:24.450Z,100756.47
2023-01-25T08:40:27.409Z,100762.38
2023-01-25T08:45:34.473Z,100762.69
2023-01-25T08:50:38.757Z,100760.06
2023-01-25T08:55:43.121Z,100756.03
2023-01-25T09:00:46.230Z,100746.66
2023-01-25T09:05:50.499Z,100756.13
2023-01-25T09:10:53.431Z,100745.72
2023-01-25T09:16:00.851Z,100739.94
2023-01-25T09:21:08.898Z,100746.50
2023-01-25T09:26:15.381Z,100738.09
2023-01-25T09:31:22.898Z,100729.28
2023-01-25T09:36:47.510Z,100729.75
2023-01-25T09:42:20.477Z,100725.81
2023-01-25T09:47:30.593Z,100724.25
2023-01-25T09:53:06.919Z,100723.78
2023-01-25T09:58:15.692Z,100722.72
2023-01-25T10:03:24.971Z,100719.78
2023-01-25T10:08:33.764Z,100715.72
2023-01-25T10:13:36.700Z,100712.78
2023-01-25T10:18:45.808Z,100706.44
2023-01-25T10:24:13.962Z,100706.19
2023-01-25T10:29:20.891Z,100699.38
2023-01-25T10:34:27.486Z,100693.97
2023-01-25T10:39:35.278Z,100680.78
2023-01-25T10:44:38.344Z,100667.59
2023-01-25T10:49:43.214Z,100654.22
2023-01-25T10:54:50.289Z,100654.22
2023-01-25T10:59:54.097Z,100650.25
2023-01-25T11:04:56.985Z,100642.00
2023-01-25T11:10:01.410Z,100631.53
2023-01-25T11:15:25.791Z,100618.84
2023-01-25T11:20:28.776Z,100628.03
2023-01-25T11:25:34.795Z,100615.88
2023-01-25T11:30:37.882Z,100600.47
2023-01-25T11:36:00.051Z,100590.91
2023-01-25T11:41:13.796Z,100585.16
2023-01-25T11:46:32.105Z,100569.03
2023-01-25T11:51:40.610Z,100560.47
2023-01-25T11:56:55.401Z,100550.94
2023-01-25T12:02:13.435Z,100549.78
2023-01-25T12:07:25.425Z,100536.34
2023-01-25T12:12:41.960Z,100516.38
2023-01-25T12:18:01.018Z,100501.75
2023-01-25T12:23:31.541Z,100492.84
2023-01-25T12:28:42.121Z,100483.22
2023-01-25T12:33:50.801Z,100473.09
2023-01-25T12:38:59.773Z,100467.88
2023-01-25T12:44:13.961Z,100457.75
2023-01-25T12:49:24.848Z,100457.72
2023-01-25T12:54:34.611Z,100446.19
2023-01-25T12:59:46.841Z,100438.03
2023-01-25T13:05:01.033Z,100436.81
2023-01-25T13:10:11.587Z,100438.97
2023-01-25T13:15:37.582Z,100410.09
2023-01-25T13:20:50.434Z,100416.31
2023-01-25T13:25:53.369Z,100406.19
2023-01-25T13:30:57.592Z,100400.53
2023-01-25T13:36:39.853Z,100409.53
2023-01-25T13:41:59.773Z,100393.25
2023-01-25T13:47:06.895Z,100385.97
2023-01-25T13:52:16.865Z,100371.94
2023-01-25T13:57:22.542Z,100369.44
2023-01-25T14:02:28.302Z,100363.00
2023-01-25T14:07:34.634Z,100365.72
2023-01-25T14:12:40.249Z,100356.22
2023-01-25T14:17:44.745Z,100350.94
2023-01-25T14:22:52.233Z,100340.13
2023-01-25T14:27:57.095Z,100334.56
2023-01-25T14:33:04.016Z,100338.25
2023-01-25T14:38:24.978Z,100334.78
2023-01-25T14:43:29.030Z,100323.44
2023-01-25T14:48:38.122Z,100314.88
2023-01-25T14:53:43.876Z,100313.09
2023-01-25T14:58:50.808Z,100302.06
2023-01-25T15:04:03.346Z,100291.41
2023-01-25T15:09:06.343Z,100291.88
2023-01-25T15:14:18.202Z,100283.63
2023-01-25T15:19:28.885Z,100272.47
2023-01-25T15:24:31.770Z,100268.59
2023-01-25T15:29:34.657Z,100263.16
2023-01-25T15:34:38.952Z,100249.25
2023-01-25T15:39:41.833Z,100239.19
2023-01-25T15:44:44.773Z,100240.72
2023-01-25T15:49:49.589Z,100239.88
2023-01-25T15:55:01.480Z,100227.09
2023-01-25T16:00:06.739Z,100222.81
2023-01-25T16:05:11.366Z,100222.25
2023-01-25T16:10:24.218Z,100216.88
2023-01-25T16:15:27.157Z,100210.94
2023-01-25T16:20:31.692Z,100206.34
2023-01-25T16:25:34.568Z,100200.16
2023-01-25T16:30:37.524Z,100195.53
2023-01-25T16:35:41.800Z,100190.19
2023-01-25T16:40:44.813Z,100176.75
2023-01-25T16:45:47.729Z,100169.75
2023-01-25T16:50:52.821Z,100159.88
2023-01-25T16:55:55.712Z,100162.63
2023-01-25T17:00:58.596Z,100155.28
2023-01-25T17:06:02.853Z,100151.09
2023-01-25T17:11:06.412Z,100144.13
2023-01-25T17:16:09.642Z,100147.25
2023-01-25T17:21:16.887Z,100136.50
2023-01-25T17:26:21.946Z,100129.75
2023-01-25T17:31:27.654Z,100125.00
2023-01-25T17:36:32.078Z,100110.34
2023-01-25T17:41:35.155Z,100119.38
2023-01-25T17:46:38.370Z,100105.56
2023-01-25T17:51:42.610Z,100095.84
2023-01-25T17:56:45.513Z,100101.63
2023-01-25T18:01:48.562Z,100091.16
2023-01-25T18:06:53.016Z,100088.03
2023-01-25T18:11:55.861Z,100087.75
2023-01-25T18:16:58.983Z,100080.38
2023-01-25T18:22:03.309Z,100081.16
2023-01-25T18:27:08.244Z,100078.19
2023-01-25T18:32:11.149Z,100073.31
2023-01-25T18:37:29.287Z,100071.38
2023-01-25T18:42:32.223Z,100082.66
2023-01-25T18:47:35.112Z,100071.38
2023-01-25T18:52:39.430Z,100073.69
2023-01-25T18:57:42.343Z,100061.28
2023-01-25T19:02:45.315Z,100056.38
2023-01-25T19:07:49.608Z,100044.78
2023-01-25T19:12:52.530Z,100028.06
2023-01-25T19:17:55.408Z,100016.22
2023-01-25T19:22:59.641Z,100013.88
2023-01-25T19:28:02.987Z,100009.00
2023-01-25T19:33:05.891Z,99992.94
2023-01-25T19:38:10.286Z,99992.69
2023-01-25T19:43:13.223Z,99983.03
2023-01-25T19:48:16.141Z,99969.44
2023-01-25T19:53:20.390Z,99981.28
2023-01-25T19:58:27.314Z,99969.09
2023-01-25T20:03:30.910Z,99976.91
2023-01-25T20:08:36.943Z,99983.09
2023-01-25T20:13:39.997Z,99977.97
2023-01-25T20:18:42.934Z,99969.13
2023-01-25T20:23:49.197Z,99964.50
2023-01-25T20:28:53.523Z,99962.66
2023-01-25T20:33:58.986Z,99954.94
2023-01-25T20:39:03.810Z,99951.97
2023-01-25T20:44:08.635Z,99944.19
2023-01-25T20:49:15.462Z,99937.81
2023-01-25T20:54:21.264Z,99927.03
2023-01-25T20:59:24.154Z,99912.59
2023-01-25T21:04:27.050Z,99906.53
2023-01-25T21:09:31.308Z,99897.75
2023-01-25T21:14:34.251Z,99900.28
2023-01-25T21:19:37.560Z,99899.34
2023-01-25T21:24:41.842Z,99893.59
2023-01-25T21:29:46.996Z,99894.19
2023-01-25T21:34:50.041Z,99880.81
2023-01-25T21:39:54.341Z,99886.13
2023-01-25T21:45:14.568Z,99868.88
2023-01-25T21:50:35.565Z,99868.47
2023-01-25T21:55:39.885Z,99861.25
2023-01-25T22:00:42.796Z,99858.25
2023-01-25T22:05:45.673Z,99859.88
2023-01-25T22:10:50.232Z,99861.78
2023-01-25T22:15:53.190Z,99867.66
2023-01-25T22:20:59.621Z,99864.66
2023-01-25T22:26:08.807Z,99854.56
2023-01-25T22:31:11.787Z,99844.41
2023-01-25T22:36:17.051Z,99838.09
2023-01-25T22:41:22.671Z,99829.00
2023-01-25T22:46:28.006Z,99834.03
2023-01-25T22:51:31.722Z,99831.59
2023-01-25T22:56:36.015Z,99827.47
2023-01-25T23:01:39.054Z,99822.59
2023-01-25T23:06:41.946Z,99812.13
2023-01-25T23:11:46.206Z,99806.81
2023-01-25T23:16:49.243Z,99804.66
2023-01-25T23:21:52.162Z,99799.19
2023-01-25T23:26:56.433Z,99791.97
2023-01-25T23:32:00.133Z,99779.06
2023-01-25T23:37:03.097Z,99776.88
2023-01-25T23:42:07.475Z,99760.13
2023-01-25T23:47:10.401Z,99753.19
2023-01-25T23:52:13.389Z,99745.13
2023-01-25T23:57:17.649Z,99753.59
